Terminal Aerodrome Forecast
Issued by NWS Albany, NY

Home | Current Version | Previous Version | Text Only | Print | Product List | Glossary On
Versions: 1 2 3 4 5 6 7 8 9 10 11 12 13
000
FTUS41 KALY 031135
TAFPOU
TAF
KPOU 031135Z 0312/0412 VRB03KT P6SM FEW100 SCT250
     FM031500 26005KT P6SM FEW070 SCT250
     FM040100 00000KT P6SM SKC=

USA.gov is the U.S. government's official web portal to all federal, state and local government web resources and services.